Time;durP1;ratioP1;P1;durP2;ratioP2;P2;SDS_P1;SDS_P2;PMS_P1;PMS_P2;Temp;Humidity;BMP_temperature;BMP_pressure;BME280_temperature;BME280_humidity;BME280_pressure;Samples;Min_cycle;Max_cycle;Signal;HPM_P1;HPM_P2
2022/03/06 00:01:16;;;;;;;10.93;8.43;;;;;;;3.21;100.00;94145.66;5031962;28;20529;-61
2022/03/06 00:03:43;;;;;;;11.93;9.20;;;;;;;3.16;100.00;94146.88;5033267;28;20675;-61
2022/03/06 00:06:08;;;;;;;12.33;8.83;;;;;;;3.11;100.00;94149.66;5033175;28;20655;-63
2022/03/06 00:08:34;;;;;;;11.03;8.43;;;;;;;3.24;100.00;94150.50;5033678;28;20271;-61
2022/03/06 00:10:59;;;;;;;10.43;7.87;;;;;;;3.06;100.00;94144.16;5033336;28;20222;-62
2022/03/06 00:13:25;;;;;;;9.13;7.27;;;;;;;3.07;100.00;94150.78;5034093;28;20189;-66
2022/03/06 00:15:50;;;;;;;8.63;6.20;;;;;;;3.13;100.00;94142.06;5032210;28;20226;-67
2022/03/06 00:18:16;;;;;;;6.80;6.10;;;;;;;3.18;100.00;94140.03;5032114;28;20178;-61
2022/03/06 00:20:42;;;;;;;9.27;6.33;;;;;;;3.19;100.00;94134.91;5033424;28;20205;-61
2022/03/06 00:23:07;;;;;;;7.33;6.00;;;;;;;3.20;100.00;94138.25;5032895;28;20637;-65
2022/03/06 00:25:33;;;;;;;7.73;5.90;;;;;;;3.25;100.00;94138.75;5033111;28;20289;-62
2022/03/06 00:27:59;;;;;;;8.30;5.50;;;;;;;3.33;100.00;94134.81;5033091;28;20651;-66
2022/03/06 00:30:24;;;;;;;6.93;5.30;;;;;;;3.37;100.00;94150.53;5033560;28;20202;-61
2022/03/06 00:32:49;;;;;;;7.37;5.60;;;;;;;3.22;100.00;94137.25;5032766;28;20256;-61
2022/03/06 00:35:15;;;;;;;6.23;4.90;;;;;;;3.09;100.00;94140.66;5032861;28;20232;-63
2022/03/06 00:37:40;;;;;;;5.23;4.70;;;;;;;3.21;100.00;94135.63;5032559;28;20182;-61
2022/03/06 00:40:07;;;;;;;5.07;4.57;;;;;;;3.23;100.00;94140.56;5032842;28;20212;-61
2022/03/06 00:42:32;;;;;;;6.13;4.83;;;;;;;3.14;100.00;94129.41;5032549;28;20178;-66
2022/03/06 00:44:58;;;;;;;4.83;4.33;;;;;;;3.07;100.00;94124.88;5032530;28;20201;-64
2022/03/06 00:47:23;;;;;;;5.00;4.50;;;;;;;3.08;100.00;94134.81;5031333;28;20190;-62
2022/03/06 00:49:49;;;;;;;5.07;4.57;;;;;;;3.02;100.00;94122.66;5032619;28;20197;-62
2022/03/06 00:52:14;;;;;;;7.17;4.40;;;;;;;3.04;100.00;94118.34;5032688;28;20185;-61
2022/03/06 00:54:41;;;;;;;5.43;4.83;;;;;;;3.11;100.00;94117.03;5032330;28;20213;-63
2022/03/06 00:57:06;;;;;;;6.17;4.97;;;;;;;3.20;100.00;94123.19;5030911;28;20210;-61
2022/03/06 00:59:34;;;;;;;5.83;4.70;;;;;;;3.15;100.00;94120.94;5032243;28;20190;-61
2022/03/06 01:02:04;;;;;;;5.40;4.90;;;;;;;3.07;100.00;94109.81;5032237;28;20220;-64
2022/03/06 01:04:30;;;;;;;6.03;5.10;;;;;;;3.08;100.00;94109.72;5032797;28;20187;-66
2022/03/06 01:06:56;;;;;;;7.70;5.83;;;;;;;2.96;100.00;94108.00;5032116;28;20671;-62
2022/03/06 01:09:22;;;;;;;7.50;5.73;;;;;;;3.01;100.00;94105.97;5032132;28;20665;-64
2022/03/06 01:11:47;;;;;;;6.80;5.83;;;;;;;2.92;100.00;94095.72;5032414;28;20339;-60
2022/03/06 01:14:12;;;;;;;7.07;6.23;;;;;;;3.10;100.00;94102.88;5032089;28;20217;-67
2022/03/06 01:16:38;;;;;;;7.10;5.80;;;;;;;3.19;100.00;94096.47;5032053;28;20202;-64
2022/03/06 01:19:03;;;;;;;7.47;5.90;;;;;;;3.20;100.00;94103.09;5032158;28;20183;-64
2022/03/06 01:21:29;;;;;;;9.67;6.83;;;;;;;3.12;100.00;94097.75;5031759;28;20207;-61
2022/03/06 01:23:54;;;;;;;9.87;7.33;;;;;;;3.15;100.00;94102.59;5031812;28;20185;-62
2022/03/06 01:26:20;;;;;;;10.57;8.43;;;;;;;3.06;100.00;94088.13;5031831;28;20304;-66
2022/03/06 01:28:45;;;;;;;10.77;7.80;;;;;;;3.11;100.00;94098.69;5030525;28;20182;-60
2022/03/06 01:31:11;;;;;;;9.43;7.07;;;;;;;3.14;100.00;94090.94;5031469;28;20201;-64
2022/03/06 01:33:37;;;;;;;9.57;8.00;;;;;;;3.21;100.00;94102.19;5030313;28;20228;-62
2022/03/06 01:36:04;;;;;;;9.80;7.50;;;;;;;3.22;100.00;94099.59;5031537;28;20436;-66
2022/03/06 01:38:29;;;;;;;11.17;8.43;;;;;;;3.11;100.00;94094.44;5031540;28;20182;-62
2022/03/06 01:40:55;;;;;;;11.90;8.67;;;;;;;3.21;100.00;94092.16;5031974;28;20672;-66
2022/03/06 01:43:20;;;;;;;10.27;8.30;;;;;;;3.19;100.00;94091.44;5031773;28;20182;-65
2022/03/06 01:45:46;;;;;;;10.63;8.37;;;;;;;3.29;100.00;94085.69;5032106;28;20218;-61
2022/03/06 01:48:11;;;;;;;11.20;8.77;;;;;;;3.32;100.00;94083.00;5031691;28;20668;-63
2022/03/06 01:50:38;;;;;;;12.43;9.00;;;;;;;3.30;100.00;94089.03;5032043;28;20640;-61
2022/03/06 01:53:07;;;;;;;11.23;8.77;;;;;;;3.24;100.00;94079.38;5031648;28;20182;-63
2022/03/06 01:55:34;;;;;;;13.27;9.53;;;;;;;3.23;100.00;94082.81;5031456;28;20291;-61
2022/03/06 01:58:04;;;;;;;12.33;9.70;;;;;;;3.24;100.00;94080.19;5030309;28;20173;-61
2022/03/06 02:00:34;;;;;;;13.60;10.10;;;;;;;3.22;100.00;94082.00;5030660;28;20271;-62
2022/03/06 02:02:59;;;;;;;14.43;9.43;;;;;;;3.25;100.00;94076.75;5031704;28;20244;-63
2022/03/06 02:05:25;;;;;;;15.37;10.43;;;;;;;3.26;100.00;94080.91;5030493;28;20607;-65
2022/03/06 02:07:51;;;;;;;16.27;10.90;;;;;;;3.22;100.00;94071.97;5031497;28;20210;-64
2022/03/06 02:10:17;;;;;;;13.20;9.73;;;;;;;3.14;100.00;94064.13;5031808;28;20710;-63
2022/03/06 02:12:44;;;;;;;12.87;9.30;;;;;;;3.20;100.00;94071.25;5031553;28;20593;-62
2022/03/06 02:15:12;;;;;;;13.77;9.37;;;;;;;3.18;100.00;94075.56;5031917;28;20237;-62
2022/03/06 02:17:38;;;;;;;14.43;9.93;;;;;;;3.05;100.00;94071.47;5014057;28;20269;-62
2022/03/06 02:20:08;;;;;;;13.47;9.53;;;;;;;3.27;100.00;94084.22;5031815;28;20209;-63
2022/03/06 02:22:39;;;;;;;12.33;9.57;;;;;;;3.27;100.00;94085.00;5034252;28;20185;-62
2022/03/06 02:25:29;;;;;;;12.37;9.30;;;;;;;3.17;100.00;94073.94;5043940;23;20198;-64
2022/03/06 02:28:05;;;;;;;9.97;8.37;;;;;;;3.09;100.00;94078.66;5037061;28;20570;-66
2022/03/06 02:30:34;;;;;;;11.23;7.93;;;;;;;3.13;100.00;94077.56;5040296;28;20212;-64
2022/03/06 02:33:03;;;;;;;10.60;8.37;;;;;;;3.07;100.00;94067.16;5055347;28;20222;-62
2022/03/06 02:35:28;;;;;;;10.10;8.00;;;;;;;3.10;100.00;94071.94;5054481;28;20317;-61
2022/03/06 02:37:54;;;;;;;9.60;6.90;;;;;;;3.13;100.00;94077.56;5055312;28;20231;-60
2022/03/06 02:40:21;;;;;;;11.50;7.73;;;;;;;3.17;100.00;94075.69;5061496;23;20244;-63
2022/03/06 02:42:49;;;;;;;8.80;7.27;;;;;;;3.21;100.00;94075.34;5054657;28;20597;-65
2022/03/06 02:45:24;;;;;;;8.43;6.93;;;;;;;3.29;100.00;94082.41;5055036;28;20196;-64
2022/03/06 02:47:51;;;;;;;7.47;6.00;;;;;;;3.33;100.00;94081.31;5054635;28;20264;-66
2022/03/06 02:50:19;;;;;;;7.80;6.07;;;;;;;3.29;100.00;94083.19;5054952;28;20216;-63
2022/03/06 02:52:46;;;;;;;7.23;5.80;;;;;;;3.25;100.00;94076.75;5053467;28;20190;-60
2022/03/06 02:55:13;;;;;;;7.07;6.17;;;;;;;3.30;100.00;94069.75;5053023;28;20223;-64
2022/03/06 02:57:39;;;;;;;8.77;4.63;;;;;;;3.17;100.00;94078.97;5053170;28;20706;-61
2022/03/06 03:00:08;;;;;;;5.60;5.03;;;;;;;3.11;100.00;94079.38;5054445;28;20228;-63
2022/03/06 03:02:34;;;;;;;5.87;5.27;;;;;;;3.20;100.00;94083.81;5054491;28;20172;-64
2022/03/06 03:05:00;;;;;;;4.60;3.80;;;;;;;3.22;100.00;94078.69;5054889;28;20193;-64
2022/03/06 03:07:25;;;;;;;4.93;4.47;;;;;;;3.17;100.00;94081.47;5054557;28;20189;-65
2022/03/06 03:09:51;;;;;;;4.47;4.07;;;;;;;3.18;100.00;94082.28;5053159;28;20658;-64
2022/03/06 03:12:16;;;;;;;5.20;4.13;;;;;;;3.11;100.00;94079.38;5052931;28;20208;-63
2022/03/06 03:14:41;;;;;;;5.13;4.00;;;;;;;3.05;100.00;94079.78;5054582;28;20232;-61
2022/03/06 03:17:07;;;;;;;4.53;3.97;;;;;;;2.96;100.00;94077.06;5054207;28;20207;-65
2022/03/06 03:21:58;;;;;;;4.00;3.40;;;;;;;2.65;100.00;94059.88;5102351;22;20233;-65
2022/03/06 03:24:25;;;;;;;3.90;3.50;;;;;;;2.85;100.00;94079.47;5073871;28;20199;-63
2022/03/06 03:26:51;;;;;;;3.87;3.43;;;;;;;2.84;100.00;94086.19;5072754;28;20216;-66
2022/03/06 03:29:16;;;;;;;5.33;3.57;;;;;;;2.85;100.00;94085.28;5073816;28;20181;-65
2022/03/06 03:31:42;;;;;;;4.93;4.07;;;;;;;2.96;100.00;94092.94;5074161;28;20201;-63
2022/03/06 03:34:07;;;;;;;4.50;3.40;;;;;;;2.95;100.00;94088.03;5073900;28;20222;-65
2022/03/06 03:36:33;;;;;;;4.13;3.50;;;;;;;2.88;100.00;94090.13;5074115;28;20205;-64
2022/03/06 03:38:58;;;;;;;3.67;3.37;;;;;;;2.91;100.00;94086.59;5073754;28;20268;-61
2022/03/06 03:41:24;;;;;;;3.53;2.97;;;;;;;2.89;100.00;94086.69;5074120;28;20662;-62
2022/03/06 03:43:50;;;;;;;3.57;3.13;;;;;;;2.92;100.00;94093.22;5073535;28;20177;-63
2022/03/06 03:46:16;;;;;;;4.10;3.70;;;;;;;2.93;100.00;94098.13;5073371;28;20217;-63
2022/03/06 03:48:41;;;;;;;3.23;2.93;;;;;;;2.84;100.00;94091.22;5073685;28;20185;-64
2022/03/06 03:51:07;;;;;;;3.33;3.03;;;;;;;2.82;100.00;94097.22;5073888;28;20615;-66
2022/03/06 03:53:32;;;;;;;3.40;2.80;;;;;;;2.82;100.00;94098.03;5073661;28;20195;-64
2022/03/06 03:55:58;;;;;;;3.77;3.13;;;;;;;2.76;100.00;94098.41;5072138;28;20303;-61
2022/03/06 03:58:23;;;;;;;3.23;2.93;;;;;;;2.84;100.00;94100.44;5072971;28;20177;-60
2022/03/06 04:00:54;;;;;;;3.87;2.80;;;;;;;2.90;100.00;94102.56;5073454;28;20591;-63
2022/03/06 04:03:20;;;;;;;4.40;2.40;;;;;;;2.85;100.00;94104.56;5055307;28;20175;-61
2022/03/06 04:05:46;;;;;;;3.53;3.13;;;;;;;2.79;100.00;94090.69;5073405;28;20203;-61
2022/03/06 04:08:11;;;;;;;3.27;2.97;;;;;;;2.70;100.00;94098.00;5072916;28;20177;-62
2022/03/06 04:10:37;;;;;;;3.83;3.23;;;;;;;2.75;100.00;94101.81;5073223;28;20201;-61
2022/03/06 04:13:03;;;;;;;3.60;3.00;;;;;;;2.75;100.00;94093.50;5073233;28;20179;-60
2022/03/06 04:15:28;;;;;;;3.10;2.80;;;;;;;2.79;100.00;94095.72;5072615;28;20217;-66
2022/03/06 04:17:54;;;;;;;3.97;2.63;;;;;;;2.79;100.00;94104.97;5055006;28;20251;-65
2022/03/06 04:20:19;;;;;;;4.57;2.80;;;;;;;2.67;100.00;94093.19;5072600;28;20320;-67
2022/03/06 04:22:45;;;;;;;2.80;2.50;;;;;;;2.73;100.00;94105.34;5072896;28;20191;-64
2022/03/06 04:25:10;;;;;;;3.13;2.83;;;;;;;2.77;100.00;94096.72;5054806;28;20262;-64
2022/03/06 04:27:36;;;;;;;2.90;2.60;;;;;;;2.72;100.00;94102.03;5054678;28;20189;-63
2022/03/06 04:30:03;;;;;;;3.23;2.87;;;;;;;2.69;100.00;94101.44;5072824;28;20198;-61
2022/03/06 04:32:28;;;;;;;3.37;2.90;;;;;;;2.65;100.00;94100.00;5072790;28;20184;-61
2022/03/06 04:34:53;;;;;;;2.83;2.53;;;;;;;2.64;100.00;94104.22;5072406;28;20216;-64
2022/03/06 04:37:19;;;;;;;2.47;2.20;;;;;;;2.74;100.00;94102.75;5053600;28;20197;-64
2022/03/06 04:39:44;;;;;;;3.03;2.73;;;;;;;2.70;100.00;94100.50;5072811;28;20183;-63
2022/03/06 04:42:10;;;;;;;3.03;2.60;;;;;;;2.59;100.00;94101.19;5061124;23;20237;-65
2022/03/06 04:44:35;;;;;;;2.73;2.53;;;;;;;2.53;100.00;94109.91;5072042;28;20169;-65
2022/03/06 04:47:01;;;;;;;3.63;2.60;;;;;;;2.54;100.00;94108.19;5073033;28;20205;-64
2022/03/06 04:49:26;;;;;;;2.60;2.40;;;;;;;2.40;100.00;94105.75;5072615;28;20202;-62
2022/03/06 04:51:52;;;;;;;2.77;2.47;;;;;;;2.56;100.00;94108.91;5054579;28;20354;-65
2022/03/06 04:54:18;;;;;;;2.27;2.07;;;;;;;2.53;100.00;94107.38;5072563;28;20593;-61
2022/03/06 04:56:43;;;;;;;2.50;2.30;;;;;;;2.55;100.00;94112.31;5072663;28;20599;-61
2022/03/06 04:59:09;;;;;;;4.03;2.40;;;;;;;2.57;100.00;94110.50;5072355;28;20182;-66
2022/03/06 05:01:35;;;;;;;2.00;1.90;;;;;;;2.58;100.00;94104.59;5072200;28;20284;-64
2022/03/06 05:04:03;;;;;;;2.40;2.20;;;;;;;2.64;100.00;94109.25;5072211;28;20183;-65
2022/03/06 05:06:28;;;;;;;2.27;2.07;;;;;;;2.64;100.00;94109.25;5072454;28;20334;-61
2022/03/06 05:08:54;;;;;;;3.40;2.10;;;;;;;2.58;100.00;94111.31;5054211;28;20276;-61
2022/03/06 05:11:19;;;;;;;2.67;2.43;;;;;;;2.53;100.00;94109.09;5072378;28;20294;-65
2022/03/06 05:13:45;;;;;;;3.60;2.30;;;;;;;2.53;100.00;94112.41;5072177;28;20180;-61
2022/03/06 05:16:10;;;;;;;2.80;2.50;;;;;;;2.51;100.00;94109.19;5071733;28;20271;-64
2022/03/06 05:18:36;;;;;;;2.73;2.40;;;;;;;2.53;100.00;94117.44;5072121;28;20264;-61
2022/03/06 05:21:03;;;;;;;2.60;2.40;;;;;;;2.81;100.00;94110.69;5054084;28;20219;-64
2022/03/06 05:23:28;;;;;;;2.43;2.10;;;;;;;3.18;100.00;94119.97;5072094;28;20770;-63
2022/03/06 05:25:54;;;;;;;2.20;2.00;;;;;;;3.41;100.00;94115.03;5096192;22;20314;-65
2022/03/06 05:28:21;;;;;;;3.17;2.50;;;;;;;3.57;100.00;94121.56;5092274;28;20188;-61
2022/03/06 05:30:47;;;;;;;2.67;2.40;;;;;;;3.67;100.00;94127.59;5092642;28;20677;-60
2022/03/06 05:33:13;;;;;;;3.00;2.43;;;;;;;3.68;100.00;94124.97;5092157;28;20180;-62
2022/03/06 05:35:38;;;;;;;2.00;1.80;;;;;;;3.64;100.00;94125.28;5092379;28;20648;-60
2022/03/06 05:38:04;;;;;;;2.40;2.20;;;;;;;3.76;100.00;94127.78;5092368;28;20184;-62
2022/03/06 05:40:30;;;;;;;4.40;2.20;;;;;;;3.60;100.00;94132.22;5092445;28;20624;-62
2022/03/06 05:42:55;;;;;;;2.10;1.90;;;;;;;3.39;100.00;94131.13;5092310;28;20653;-63
2022/03/06 05:45:21;;;;;;;1.90;1.80;;;;;;;3.22;100.00;94119.66;5092337;28;20298;-60
2022/03/06 05:47:46;;;;;;;2.30;2.10;;;;;;;3.05;100.00;94117.44;5091977;28;20722;-60
2022/03/06 05:50:12;;;;;;;2.53;2.13;;;;;;;3.01;100.00;94123.56;5092097;28;20232;-65
2022/03/06 05:52:38;;;;;;;3.00;2.40;;;;;;;2.91;100.00;94116.72;5090403;28;20181;-61
2022/03/06 05:55:04;;;;;;;2.60;2.40;;;;;;;2.96;100.00;94118.03;5090324;28;20220;-65
2022/03/06 05:57:30;;;;;;;2.57;2.37;;;;;;;2.92;100.00;94115.81;5095003;28;20233;-62
2022/03/06 05:59:55;;;;;;;2.50;2.30;;;;;;;2.75;100.00;94111.06;5096305;28;20181;-60
2022/03/06 06:02:21;;;;;;;2.70;2.27;;;;;;;2.68;100.00;94115.66;5096202;28;20534;-61
2022/03/06 06:04:48;;;;;;;2.50;2.30;;;;;;;2.67;100.00;94120.78;5096133;28;20181;-63
2022/03/06 06:07:13;;;;;;;2.87;2.27;;;;;;;2.65;100.00;94115.84;5094421;28;20265;-65
2022/03/06 06:09:39;;;;;;;3.90;2.63;;;;;;;2.74;100.00;94127.81;5095929;28;20239;-64
2022/03/06 06:12:05;;;;;;;2.70;2.50;;;;;;;2.71;100.00;94124.72;5095844;28;20207;-62
2022/03/06 06:14:31;;;;;;;2.90;2.60;;;;;;;2.74;100.00;94127.00;5095768;28;20291;-59
2022/03/06 06:16:56;;;;;;;2.87;2.67;;;;;;;2.81;100.00;94128.25;5095563;28;20235;-60
2022/03/06 06:19:21;;;;;;;3.37;2.77;;;;;;;2.82;100.00;94130.66;5095812;28;20182;-62
2022/03/06 06:21:47;;;;;;;2.50;2.23;;;;;;;2.77;100.00;94135.16;5095492;28;20302;-64
2022/03/06 06:24:14;;;;;;;2.70;2.50;;;;;;;2.70;100.00;94133.94;5095569;28;20583;-65
2022/03/06 06:26:43;;;;;;;2.50;2.30;;;;;;;2.66;100.00;94142.56;5094366;28;20707;-60
2022/03/06 06:29:09;;;;;;;2.60;2.23;;;;;;;2.63;100.00;94139.44;5094235;28;20575;-65
2022/03/06 06:31:35;;;;;;;2.90;2.60;;;;;;;2.72;100.00;94146.38;5094215;28;20207;-64
2022/03/06 06:34:00;;;;;;;2.03;1.93;;;;;;;2.74;100.00;94145.38;5095630;28;20191;-60
2022/03/06 06:36:26;;;;;;;2.10;1.93;;;;;;;2.83;100.00;94149.03;5095241;28;20208;-61
2022/03/06 06:38:53;;;;;;;3.67;2.37;;;;;;;2.77;100.00;94151.94;5095352;28;20669;-66
2022/03/06 06:41:18;;;;;;;3.50;2.83;;;;;;;2.71;100.00;94147.28;5095315;28;20561;-65
2022/03/06 06:43:44;;;;;;;3.20;1.90;;;;;;;2.72;100.00;94147.19;5095090;28;20585;-65
2022/03/06 06:46:10;;;;;;;2.60;2.20;;;;;;;2.73;100.00;94146.28;5095046;28;20206;-64
2022/03/06 06:48:35;;;;;;;2.30;2.10;;;;;;;2.83;100.00;94149.03;5094985;28;20215;-60
2022/03/06 06:51:01;;;;;;;2.37;2.17;;;;;;;2.74;100.00;94152.91;5095428;28;20294;-65
2022/03/06 06:53:26;;;;;;;3.77;2.17;;;;;;;2.71;100.00;94153.09;5093933;28;20272;-61
2022/03/06 06:55:52;;;;;;;3.63;2.57;;;;;;;2.75;100.00;94148.72;5095309;28;20216;-66
2022/03/06 06:58:17;;;;;;;3.80;2.07;;;;;;;2.80;100.00;94154.22;5095017;28;20169;-61
2022/03/06 07:00:43;;;;;;;3.73;2.00;;;;;;;2.77;100.00;94154.44;5095432;28;20751;-65
2022/03/06 07:03:09;;;;;;;3.40;2.00;;;;;;;2.65;100.00;94153.47;5095226;28;20202;-64
2022/03/06 07:05:35;;;;;;;3.23;1.97;;;;;;;2.62;100.00;94153.69;5095125;28;20675;-60
2022/03/06 07:08:00;;;;;;;3.30;2.10;;;;;;;2.65;100.00;94155.19;5093231;28;20624;-62
2022/03/06 07:10:26;;;;;;;2.13;1.90;;;;;;;2.69;100.00;94152.38;5076647;28;20200;-65
2022/03/06 07:12:54;;;;;;;3.03;1.60;;;;;;;2.71;100.00;94150.59;5094781;28;20645;-65
2022/03/06 07:15:20;;;;;;;1.80;1.70;;;;;;;2.59;100.00;94148.06;5094951;28;20251;-66
2022/03/06 07:17:46;;;;;;;1.80;1.70;;;;;;;2.68;100.00;94160.81;5094259;28;20176;-61
2022/03/06 07:20:12;;;;;;;2.83;2.33;;;;;;;2.66;100.00;94146.75;5094584;28;20710;-64
2022/03/06 07:22:38;;;;;;;2.33;2.00;;;;;;;2.57;100.00;94143.13;5094286;28;20180;-65
2022/03/06 07:25:04;;;;;;;2.57;2.07;;;;;;;2.61;100.00;94142.03;5094095;28;20642;-63
2022/03/06 07:27:29;;;;;;;3.37;2.10;;;;;;;2.56;100.00;94144.81;5094563;28;20260;-65
2022/03/06 07:29:55;;;;;;;3.67;3.03;;;;;;;2.70;100.00;94138.94;5092939;28;20184;-65
2022/03/06 07:32:20;;;;;;;3.13;2.50;;;;;;;2.71;100.00;94145.56;5092802;28;20176;-64
2022/03/06 07:34:46;;;;;;;3.50;2.37;;;;;;;2.65;100.00;94143.44;5094242;28;20222;-65
2022/03/06 07:37:11;;;;;;;2.80;2.50;;;;;;;2.63;100.00;94139.44;5093891;28;20253;-66
2022/03/06 07:39:37;;;;;;;3.00;2.10;;;;;;;2.79;100.00;94148.41;5094181;28;20188;-63
2022/03/06 07:42:03;;;;;;;3.00;2.70;;;;;;;2.80;100.00;94150.03;5082627;22;20236;-67
2022/03/06 07:44:28;;;;;;;6.63;3.40;;;;;;;2.84;100.00;94143.91;5073788;28;20259;-63
2022/03/06 07:46:54;;;;;;;3.33;2.50;;;;;;;2.79;100.00;94148.41;5073952;28;20360;-63
2022/03/06 07:49:19;;;;;;;2.70;2.50;;;;;;;2.71;100.00;94145.56;5073778;28;20184;-62
2022/03/06 07:51:45;;;;;;;5.27;2.03;;;;;;;2.86;100.00;94156.34;5073979;28;20211;-63
2022/03/06 07:54:14;;;;;;;5.73;3.60;;;;;;;4.72;100.00;94164.75;5073706;28;20177;-62
2022/03/06 07:56:40;;;;;;;5.30;3.37;;;;;;;4.11;100.00;94171.47;5080482;22;20225;-66
2022/03/06 07:59:06;;;;;;;2.40;2.20;;;;;;;3.84;100.00;94175.00;5073124;28;20197;-65
2022/03/06 08:01:32;;;;;;;4.73;3.00;;;;;;;3.55;100.00;94178.66;5073362;28;20209;-65
2022/03/06 08:03:57;;;;;;;2.03;1.73;;;;;;;3.53;100.00;94172.94;5073338;28;20190;-66
2022/03/06 08:06:23;;;;;;;5.30;2.40;;;;;;;3.45;100.00;94165.91;5073293;28;20209;-66
2022/03/06 08:08:48;;;;;;;2.67;2.47;;;;;;;3.48;100.00;94174.91;5055216;28;20218;-65
2022/03/06 08:11:14;;;;;;;1.53;1.43;;;;;;;3.17;100.00;94164.34;5072973;28;20208;-65
2022/03/06 08:13:39;;;;;;;3.03;1.60;;;;;;;3.11;100.00;94169.75;5073225;28;20271;-65
2022/03/06 08:16:05;;;;;;;3.27;1.70;;;;;;;4.70;100.00;94164.06;5054844;28;20221;-66
2022/03/06 08:18:30;;;;;;;1.77;1.60;;;;;;;4.11;100.00;94166.44;5072273;28;20198;-64
2022/03/06 08:20:56;;;;;;;1.63;1.53;;;;;;;3.96;100.00;94182.56;5072965;28;20208;-62
2022/03/06 08:23:21;;;;;;;1.43;1.33;;;;;;;3.73;100.00;94183.28;5072980;28;20587;-62
2022/03/06 08:25:47;;;;;;;1.73;1.43;;;;;;;3.56;100.00;94175.22;5054704;28;20297;-64
2022/03/06 08:28:18;;;;;;;1.60;1.40;;;;;;;3.46;100.00;94170.00;5072786;28;20183;-65
2022/03/06 08:30:44;;;;;;;3.27;1.30;;;;;;;3.44;100.00;94159.25;5072542;28;20212;-64
2022/03/06 08:33:09;;;;;;;2.83;2.07;;;;;;;3.38;100.00;94160.47;5072935;28;20220;-65
2022/03/06 08:35:35;;;;;;;1.87;1.70;;;;;;;3.29;100.00;94157.75;5072686;28;20213;-64
2022/03/06 08:38:00;;;;;;;1.97;1.77;;;;;;;3.33;100.00;94157.44;5071548;28;20215;-61
2022/03/06 08:40:27;;;;;;;1.73;1.63;;;;;;;3.18;100.00;94155.13;5072376;28;20201;-64
2022/03/06 08:42:53;;;;;;;2.00;1.80;;;;;;;3.23;100.00;94150.63;5072904;28;20195;-64
2022/03/06 08:45:19;;;;;;;2.30;1.90;;;;;;;3.25;100.00;94153.84;5038120;28;20220;-61
2022/03/06 08:47:44;;;;;;;1.97;1.80;;;;;;;3.25;100.00;94157.13;5073142;28;20213;-61
2022/03/06 08:50:09;;;;;;;1.97;1.63;;;;;;;3.21;100.00;94158.22;5072766;28;20300;-61
2022/03/06 08:52:35;;;;;;;2.80;1.87;;;;;;;3.14;100.00;94157.03;5072609;28;20619;-60
2022/03/06 08:55:00;;;;;;;3.37;2.20;;;;;;;3.10;100.00;94148.06;5072261;28;20299;-60
2022/03/06 08:57:26;;;;;;;4.73;2.57;;;;;;;3.04;100.00;94150.97;5072595;28;20610;-60
2022/03/06 08:59:51;;;;;;;3.20;2.40;;;;;;;3.06;100.00;94156.72;5072004;28;20188;-60
2022/03/06 09:02:17;;;;;;;2.60;2.10;;;;;;;2.98;100.00;94155.59;5072447;28;20283;-61
2022/03/06 09:04:43;;;;;;;3.03;2.60;;;;;;;2.98;100.00;94150.56;5071964;28;20583;-60
2022/03/06 09:07:08;;;;;;;4.97;2.63;;;;;;;3.05;100.00;94145.03;5054171;28;20181;-60
2022/03/06 09:09:34;;;;;;;1.97;1.83;;;;;;;2.96;100.00;94142.31;5071891;28;20192;-61
2022/03/06 09:12:00;;;;;;;2.33;2.13;;;;;;;2.97;100.00;94137.19;5069954;28;20799;-61
2022/03/06 09:14:26;;;;;;;2.70;2.50;;;;;;;2.99;100.00;94140.41;5071551;28;20207;-61
2022/03/06 09:16:51;;;;;;;2.30;2.10;;;;;;;2.95;100.00;94150.78;5053954;28;20209;-61
2022/03/06 09:19:17;;;;;;;2.97;2.37;;;;;;;2.90;100.00;94146.03;5071835;28;20183;-60
2022/03/06 09:21:46;;;;;;;4.20;2.27;;;;;;;2.96;100.00;94142.31;5071980;28;20207;-60
2022/03/06 09:24:12;;;;;;;2.50;2.30;;;;;;;2.94;100.00;94152.47;5072115;28;20177;-61
2022/03/06 09:26:38;;;;;;;2.90;2.20;;;;;;;2.78;100.00;94151.81;5053692;28;20212;-61
2022/03/06 09:29:04;;;;;;;2.90;2.33;;;;;;;2.88;100.00;94162.91;5071711;28;20173;-62
2022/03/06 09:31:30;;;;;;;3.30;2.50;;;;;;;2.85;100.00;94155.53;5071797;28;20208;-60
2022/03/06 09:33:55;;;;;;;3.37;2.70;;;;;;;2.93;100.00;94150.84;5071558;28;20177;-61
2022/03/06 09:36:21;;;;;;;2.50;2.30;;;;;;;2.78;100.00;94156.03;5072107;28;20224;-60
2022/03/06 09:38:46;;;;;;;3.27;2.63;;;;;;;2.88;100.00;94145.31;5053568;28;20655;-62
2022/03/06 09:41:16;;;;;;;2.83;2.20;;;;;;;2.76;100.00;94146.09;5071473;28;20531;-61
2022/03/06 09:43:43;;;;;;;2.50;2.30;;;;;;;2.94;100.00;94146.63;5071808;28;20177;-64
2022/03/06 09:46:09;;;;;;;2.33;2.10;;;;;;;2.92;100.00;94155.97;5071790;28;20624;-64
2022/03/06 09:48:36;;;;;;;2.60;2.40;;;;;;;2.92;100.00;94154.28;5053644;28;20276;-62
2022/03/06 09:51:05;;;;;;;5.30;2.43;;;;;;;2.92;100.00;94150.94;5071847;28;20205;-65
2022/03/06 09:53:31;;;;;;;2.33;2.07;;;;;;;2.90;100.00;94155.25;5071502;28;20173;-61
2022/03/06 09:55:57;;;;;;;2.30;2.03;;;;;;;2.79;100.00;94158.44;5071574;28;20678;-61
2022/03/06 09:58:23;;;;;;;2.30;2.10;;;;;;;2.79;100.00;94160.94;5071764;28;20266;-61
2022/03/06 10:00:48;;;;;;;2.10;1.90;;;;;;;2.79;100.00;94158.44;5071618;28;20261;-60
2022/03/06 10:03:19;;;;;;;2.03;1.83;;;;;;;2.84;100.00;94160.66;5071715;28;20188;-62
2022/03/06 10:05:44;;;;;;;1.70;1.60;;;;;;;2.86;100.00;94177.25;5071516;28;20200;-63
2022/03/06 10:08:21;;;;;;;1.83;1.67;;;;;;;2.87;100.00;94176.31;5071705;28;20180;-65
2022/03/06 10:10:51;;;;;;;3.77;2.20;;;;;;;2.85;100.00;94159.78;5053441;28;20200;-60
2022/03/06 10:13:32;;;;;;;2.10;1.97;;;;;;;2.83;100.00;94169.88;5053619;28;20172;-61
2022/03/06 10:16:12;;;;;;;2.47;2.27;;;;;;;2.88;100.00;94172.94;5053218;28;20213;-61
2022/03/06 10:18:44;;;;;;;2.67;2.33;;;;;;;2.77;100.00;94174.50;5071506;28;20563;-61
2022/03/06 10:21:14;;;;;;;2.57;2.37;;;;;;;2.82;100.00;94165.78;5071543;28;20211;-60
2022/03/06 10:23:40;;;;;;;3.23;2.67;;;;;;;2.86;100.00;94173.91;5053478;28;20558;-63
2022/03/06 10:26:10;;;;;;;3.40;2.80;;;;;;;2.86;100.00;94179.75;5053146;28;20271;-64
2022/03/06 10:28:47;;;;;;;3.10;2.50;;;;;;;2.79;100.00;94188.53;5071541;28;20181;-65
2022/03/06 10:31:13;;;;;;;4.67;3.23;;;;;;;2.81;100.00;94166.66;5077802;22;20235;-61
2022/03/06 10:33:38;;;;;;;5.03;3.63;;;;;;;2.84;100.00;94164.00;5070989;28;20638;-62
2022/03/06 10:36:08;;;;;;;4.30;3.50;;;;;;;2.85;100.00;94160.56;5070930;28;20213;-60
2022/03/06 10:38:35;;;;;;;4.10;3.40;;;;;;;2.80;100.00;94169.28;5053141;28;20191;-61
2022/03/06 10:41:16;;;;;;;4.43;3.67;;;;;;;2.82;100.00;94180.03;5071073;28;20283;-61
2022/03/06 10:43:41;;;;;;;5.50;4.00;;;;;;;2.84;100.00;94160.66;5074167;28;20164;-64
2022/03/06 10:46:18;;;;;;;5.67;4.10;;;;;;;2.90;100.00;94145.22;5074817;28;20637;-61
2022/03/06 10:48:57;;;;;;;4.03;3.10;;;;;;;2.83;100.00;94169.88;5074123;28;20695;-67
2022/03/06 10:51:24;;;;;;;4.63;3.53;;;;;;;2.87;100.00;94143.69;5057695;28;20228;-63
2022/03/06 10:53:54;;;;;;;5.53;3.10;;;;;;;3.06;100.00;94163.44;5056692;28;20205;-61
2022/03/06 10:56:21;;;;;;;4.03;3.10;;;;;;;3.07;100.00;94170.06;5074544;28;20246;-66
2022/03/06 10:58:48;;;;;;;4.63;3.77;;;;;;;3.16;100.00;94146.88;5074415;28;20177;-61
2022/03/06 11:01:14;;;;;;;5.47;4.23;;;;;;;3.27;100.00;94154.53;5074876;28;20215;-65
2022/03/06 11:03:40;;;;;;;4.17;3.47;;;;;;;3.25;100.00;94144.56;5074452;28;20202;-63
2022/03/06 11:06:07;;;;;;;3.27;2.63;;;;;;;3.19;100.00;94142.44;5074671;28;20642;-60
2022/03/06 11:08:34;;;;;;;3.30;2.50;;;;;;;3.22;100.00;94141.47;5078070;23;20228;-64
2022/03/06 11:11:00;;;;;;;4.40;3.37;;;;;;;3.14;100.00;94139.44;5073967;28;20219;-62
2022/03/06 11:13:30;;;;;;;4.57;3.30;;;;;;;3.13;100.00;94145.34;5073438;28;20177;-62
2022/03/06 11:15:57;;;;;;;3.97;3.13;;;;;;;3.17;100.00;94164.34;5072442;28;20215;-60
2022/03/06 11:18:24;;;;;;;3.83;2.80;;;;;;;3.09;100.00;94165.75;5074137;28;20172;-61
2022/03/06 11:20:52;;;;;;;4.10;2.40;;;;;;;3.05;100.00;94157.59;5073921;28;20277;-60
2022/03/06 11:23:35;;;;;;;3.20;2.67;;;;;;;3.10;100.00;94157.31;5073035;28;20556;-60
2022/03/06 11:26:01;;;;;;;2.87;2.03;;;;;;;2.95;100.00;94154.06;5074173;28;20209;-61
2022/03/06 11:28:39;;;;;;;2.93;2.30;;;;;;;2.92;100.00;94159.28;5074118;28;20177;-61
2022/03/06 11:31:08;;;;;;;2.87;2.63;;;;;;;2.92;100.00;94149.25;5072693;28;20220;-64